createdAt,value
2022-07-27T00:01:19.653Z,17.95
2022-07-27T00:03:47.741Z,20.48
2022-07-27T00:06:15.860Z,8.00
2022-07-27T00:08:43.443Z,13.07
2022-07-27T00:11:11.582Z,9.43
2022-07-27T00:13:40.694Z,10.02
2022-07-27T00:16:08.454Z,12.07
2022-07-27T00:18:35.984Z,13.40
2022-07-27T00:21:03.522Z,15.38
2022-07-27T00:23:31.061Z,8.30
2022-07-27T00:25:58.563Z,8.25
2022-07-27T00:28:26.112Z,9.60
2022-07-27T00:30:54.975Z,29.17
2022-07-27T00:33:22.504Z,26.70
2022-07-27T00:35:50.012Z,17.55
2022-07-27T00:38:17.752Z,20.73
2022-07-27T00:40:46.035Z,20.08
2022-07-27T00:43:14.077Z,31.70
2022-07-27T00:45:41.697Z,26.50
2022-07-27T00:48:10.657Z,33.33
2022-07-27T00:50:39.406Z,32.00
2022-07-27T00:53:06.971Z,33.42
2022-07-27T00:55:35.109Z,31.27
2022-07-27T00:58:04.921Z,34.30
2022-07-27T01:00:32.556Z,21.08
2022-07-27T01:03:02.359Z,26.88
2022-07-27T01:05:36.370Z,20.95
2022-07-27T01:08:07.742Z,22.88
2022-07-27T01:10:35.432Z,31.73
2022-07-27T01:13:16.430Z,28.15
2022-07-27T01:15:44.352Z,32.05
2022-07-27T01:18:13.763Z,33.10
2022-07-27T01:20:43.273Z,37.42
2022-07-27T01:23:12.368Z,32.60
2022-07-27T01:25:42.361Z,30.88
2022-07-27T01:28:09.880Z,26.75
2022-07-27T01:30:37.409Z,29.90
2022-07-27T01:33:06.647Z,26.80
2022-07-27T01:35:34.677Z,42.40
2022-07-27T01:38:02.437Z,67.40
2022-07-27T01:40:31.380Z,80.65
2022-07-27T01:42:58.945Z,89.75
2022-07-27T01:45:26.677Z,81.32
2022-07-27T01:47:54.291Z,103.38
2022-07-27T01:50:21.832Z,78.65
2022-07-27T01:52:49.592Z,82.63
2022-07-27T01:55:17.110Z,94.28
2022-07-27T01:57:46.079Z,111.28
2022-07-27T02:00:14.743Z,77.80
2022-07-27T02:02:43.198Z,89.05
2022-07-27T02:05:12.424Z,69.05
2022-07-27T02:07:40.590Z,68.55
2022-07-27T02:10:09.103Z,62.25
2022-07-27T02:12:35.873Z,81.43
2022-07-27T02:15:06.435Z,91.82
2022-07-27T02:17:35.176Z,80.90
2022-07-27T02:20:03.051Z,69.85
2022-07-27T02:22:31.220Z,66.65
2022-07-27T02:24:59.114Z,66.65
2022-07-27T02:27:26.733Z,57.33
2022-07-27T02:29:54.415Z,60.15
2022-07-27T02:32:23.292Z,53.63
2022-07-27T02:34:51.429Z,45.15
2022-07-27T02:37:18.952Z,43.45
2022-07-27T02:39:46.452Z,32.13
2022-07-27T02:42:13.968Z,32.05
2022-07-27T02:44:41.579Z,28.30
2022-07-27T02:47:09.102Z,27.17
2022-07-27T02:49:38.224Z,26.95
2022-07-27T02:52:06.844Z,28.05
2022-07-27T02:54:34.906Z,33.95
2022-07-27T02:57:04.714Z,29.45
2022-07-27T02:59:32.319Z,17.48
2022-07-27T03:01:59.852Z,20.55
2022-07-27T03:04:27.844Z,18.92
2022-07-27T03:06:56.706Z,12.43
2022-07-27T03:09:32.860Z,13.35
2022-07-27T03:12:01.174Z,11.20
2022-07-27T03:14:29.292Z,17.83
2022-07-27T03:16:56.844Z,17.58
2022-07-27T03:19:29.728Z,11.00
2022-07-27T03:21:59.219Z,10.70
2022-07-27T03:24:26.705Z,15.05
2022-07-27T03:26:54.208Z,10.95
2022-07-27T03:29:21.724Z,20.02
2022-07-27T03:31:49.227Z,27.67
2022-07-27T03:34:17.483Z,28.45
2022-07-27T03:36:46.095Z,26.60
2022-07-27T03:39:15.216Z,27.58
2022-07-27T03:41:42.935Z,31.45
2022-07-27T03:44:10.451Z,26.48
2022-07-27T03:46:37.957Z,25.70
2022-07-27T03:49:14.691Z,13.50
2022-07-27T03:51:43.021Z,14.05
2022-07-27T03:54:10.745Z,31.92
2022-07-27T03:56:39.616Z,21.90
2022-07-27T03:59:07.140Z,27.83
2022-07-27T04:01:34.808Z,29.10
2022-07-27T04:04:02.641Z,27.25
2022-07-27T04:06:30.245Z,21.00
2022-07-27T04:09:07.747Z,8.80
2022-07-27T04:11:37.713Z,7.72
2022-07-27T04:14:13.011Z,11.38
2022-07-27T04:16:41.282Z,8.77
2022-07-27T04:19:09.208Z,5.88
2022-07-27T04:21:37.435Z,5.65
2022-07-27T04:24:05.793Z,8.63
2022-07-27T04:26:33.479Z,5.13
2022-07-27T04:29:00.988Z,6.60
2022-07-27T04:31:29.938Z,7.53
2022-07-27T04:33:57.468Z,6.63
2022-07-27T04:36:25.124Z,6.65
2022-07-27T04:38:52.624Z,8.13
2022-07-27T04:41:20.171Z,7.35
2022-07-27T04:43:47.684Z,5.88
2022-07-27T04:46:15.726Z,5.80
2022-07-27T04:48:49.560Z,8.00
2022-07-27T04:51:18.623Z,10.75
2022-07-27T04:53:53.472Z,11.00
2022-07-27T04:56:26.307Z,9.30
2022-07-27T04:58:54.152Z,10.98
2022-07-27T05:01:22.932Z,7.50
2022-07-27T05:03:52.236Z,9.20
2022-07-27T05:06:20.058Z,11.68
2022-07-27T05:08:47.737Z,10.20
2022-07-27T05:11:15.378Z,137.90
2022-07-27T05:13:42.916Z,149.95
2022-07-27T05:16:11.704Z,120.10
2022-07-27T05:18:39.913Z,146.48
2022-07-27T05:21:09.677Z,115.57
2022-07-27T05:23:37.283Z,131.18
2022-07-27T05:26:05.274Z,58.83
2022-07-27T05:28:32.863Z,34.33
2022-07-27T05:31:00.387Z,97.40
2022-07-27T05:33:27.889Z,39.30
2022-07-27T05:35:56.367Z,34.72
2022-07-27T05:38:25.216Z,61.33
2022-07-27T05:40:53.141Z,23.38
2022-07-27T05:43:20.658Z,37.03
2022-07-27T05:45:48.296Z,26.73
2022-07-27T05:48:16.501Z,20.65
2022-07-27T05:50:44.027Z,18.65
2022-07-27T05:53:11.579Z,32.10
2022-07-27T05:55:58.465Z,29.45
2022-07-27T05:58:27.043Z,16.00
2022-07-27T06:00:54.693Z,20.00
2022-07-27T06:03:22.604Z,15.60
2022-07-27T06:05:50.864Z,30.70
2022-07-27T06:08:17.502Z,49.67
2022-07-27T06:10:46.359Z,45.63
2022-07-27T06:13:13.939Z,48.10
2022-07-27T06:15:41.525Z,36.15
2022-07-27T06:18:16.706Z,9.35
2022-07-27T06:20:45.695Z,15.95
2022-07-27T06:23:13.438Z,14.75
2022-07-27T06:25:40.952Z,14.88
2022-07-27T06:28:09.960Z,30.55
2022-07-27T06:30:37.480Z,32.53
2022-07-27T06:33:06.206Z,14.23
2022-07-27T06:35:34.044Z,27.33
2022-07-27T06:38:01.798Z,10.35
2022-07-27T06:40:30.110Z,29.45
2022-07-27T06:42:58.260Z,12.30
2022-07-27T06:45:27.599Z,16.48
2022-07-27T06:47:55.103Z,23.15
2022-07-27T06:50:23.342Z,21.48
2022-07-27T06:52:50.926Z,14.30
2022-07-27T06:55:18.628Z,18.60
2022-07-27T06:57:46.369Z,25.90
2022-07-27T07:00:15.386Z,29.45
2022-07-27T07:02:53.801Z,66.00
2022-07-27T07:05:21.637Z,23.70
2022-07-27T07:07:49.173Z,17.52
2022-07-27T07:10:16.799Z,86.97
2022-07-27T07:12:44.301Z,17.75
2022-07-27T07:15:13.218Z,25.27
2022-07-27T07:17:41.193Z,20.00
2022-07-27T07:20:11.379Z,18.27
2022-07-27T07:22:38.867Z,56.65
2022-07-27T07:25:06.585Z,42.92
2022-07-27T07:27:34.194Z,63.00
2022-07-27T07:30:02.720Z,42.75
2022-07-27T07:32:33.509Z,26.95
2022-07-27T07:35:01.476Z,23.27
2022-07-27T07:37:31.649Z,33.28
2022-07-27T07:40:18.757Z,33.08
2022-07-27T07:42:53.733Z,31.83
2022-07-27T07:45:22.130Z,24.33
2022-07-27T07:47:50.495Z,22.38
2022-07-27T07:50:18.401Z,10.88
2022-07-27T07:52:48.507Z,9.73
2022-07-27T07:55:16.879Z,8.50
2022-07-27T07:57:44.389Z,14.63
2022-07-27T08:00:12.859Z,11.73
2022-07-27T08:02:45.489Z,15.52
2022-07-27T08:05:13.888Z,21.42
2022-07-27T08:07:41.710Z,12.98
2022-07-27T08:10:13.737Z,16.63
2022-07-27T08:12:43.827Z,35.63
2022-07-27T08:15:12.634Z,47.33
2022-07-27T08:17:40.578Z,66.63
2022-07-27T08:20:09.052Z,59.20
2022-07-27T08:22:36.958Z,53.58
2022-07-27T08:25:05.296Z,60.97
2022-07-27T08:27:40.357Z,66.38
2022-07-27T08:30:10.391Z,46.33
2022-07-27T08:32:53.225Z,52.70
2022-07-27T08:35:22.057Z,29.88
2022-07-27T08:37:50.060Z,40.67
2022-07-27T08:43:08.729Z,12.05
2022-07-27T08:45:37.152Z,10.23
2022-07-27T08:48:05.676Z,8.05
2022-07-27T08:50:34.827Z,8.57
2022-07-27T08:53:05.473Z,8.88
2022-07-27T08:55:34.620Z,7.85
2022-07-27T08:58:03.781Z,6.82
2022-07-27T09:00:34.311Z,17.42
2022-07-27T09:03:02.078Z,10.82
2022-07-27T09:05:37.325Z,15.38
2022-07-27T09:08:12.776Z,18.15
2022-07-27T09:10:40.727Z,16.38
2022-07-27T09:13:19.420Z,13.85
2022-07-27T09:16:16.372Z,15.07
2022-07-27T09:18:38.463Z,9.68
2022-07-27T09:21:11.260Z,15.65
2022-07-27T09:23:39.454Z,14.25
2022-07-27T09:26:29.072Z,11.60
2022-07-27T09:29:00.428Z,8.93
2022-07-27T09:31:29.885Z,18.75
2022-07-27T09:34:00.122Z,28.42
2022-07-27T09:36:29.200Z,22.27
2022-07-27T09:39:02.465Z,13.18
2022-07-27T09:41:44.083Z,45.03
2022-07-27T09:47:20.612Z,17.38
2022-07-27T09:49:48.188Z,43.95
2022-07-27T09:52:23.969Z,44.28
2022-07-27T09:54:52.056Z,34.58
2022-07-27T09:57:19.885Z,25.65
2022-07-27T09:59:47.713Z,24.08
2022-07-27T10:02:16.742Z,16.38
2022-07-27T10:04:45.151Z,15.60
2022-07-27T10:07:14.189Z,22.50
2022-07-27T10:09:42.172Z,35.80
2022-07-27T10:12:10.443Z,17.30
2022-07-27T10:14:37.958Z,19.52
2022-07-27T10:17:07.679Z,16.98
2022-07-27T10:19:42.917Z,14.52
2022-07-27T10:22:10.426Z,14.25
2022-07-27T10:24:37.971Z,36.83
2022-07-27T10:27:20.619Z,43.47
2022-07-27T10:29:49.072Z,22.65
2022-07-27T10:32:25.360Z,16.92
2022-07-27T10:34:54.475Z,15.40
2022-07-27T10:37:26.740Z,19.63
2022-07-27T10:40:15.957Z,30.55
2022-07-27T10:42:44.249Z,17.70
2022-07-27T10:45:14.062Z,47.97
2022-07-27T10:47:44.852Z,39.92
2022-07-27T10:50:32.298Z,37.58
2022-07-27T10:53:05.935Z,23.70
2022-07-27T10:55:52.494Z,17.15
2022-07-27T10:58:51.670Z,13.25
2022-07-27T11:01:21.536Z,10.25
2022-07-27T11:03:56.153Z,13.07
2022-07-27T11:06:55.484Z,27.17
2022-07-27T11:10:15.803Z,33.33
2022-07-27T11:12:04.365Z,24.90
2022-07-27T11:14:32.117Z,23.63
2022-07-27T11:17:39.893Z,23.27
2022-07-27T11:19:53.968Z,30.90
2022-07-27T11:25:19.804Z,22.38
2022-07-27T11:27:48.704Z,14.75
2022-07-27T11:30:23.461Z,19.83
2022-07-27T11:32:51.092Z,20.60
2022-07-27T11:35:20.174Z,13.00
2022-07-27T11:38:04.240Z,18.23
2022-07-27T11:43:39.005Z,14.68
2022-07-27T11:46:20.434Z,25.05
2022-07-27T11:49:06.180Z,13.95
2022-07-27T11:51:34.985Z,17.70
2022-07-27T11:54:05.898Z,45.35
2022-07-27T11:56:36.234Z,18.15
2022-07-27T11:59:10.390Z,44.97
2022-07-27T12:01:40.161Z,40.95
2022-07-27T12:04:12.862Z,36.40
2022-07-27T12:06:42.301Z,36.42
2022-07-27T12:09:14.641Z,22.42
2022-07-27T12:11:56.714Z,31.83
2022-07-27T12:14:36.852Z,30.90
2022-07-27T12:17:16.589Z,18.90
2022-07-27T12:19:50.749Z,16.98
2022-07-27T12:22:24.764Z,35.97
2022-07-27T12:24:54.406Z,46.08
2022-07-27T12:27:22.936Z,23.45
2022-07-27T12:30:02.440Z,17.88
2022-07-27T12:32:32.467Z,18.45
2022-07-27T12:35:00.814Z,22.20
2022-07-27T12:37:33.051Z,18.38
2022-07-27T12:40:01.845Z,28.80
2022-07-27T12:42:37.390Z,32.35
2022-07-27T12:45:16.665Z,14.30
2022-07-27T12:47:47.575Z,15.75
2022-07-27T12:50:16.906Z,10.85
2022-07-27T12:52:49.160Z,10.07
2022-07-27T12:55:18.978Z,13.13
2022-07-27T12:57:56.772Z,10.40
2022-07-27T13:00:32.700Z,31.73
2022-07-27T13:03:01.621Z,36.53
2022-07-27T13:05:29.187Z,38.97
2022-07-27T13:07:57.149Z,22.08
2022-07-27T13:10:26.214Z,30.63
2022-07-27T13:12:53.768Z,29.10
2022-07-27T13:15:21.385Z,23.75
2022-07-27T13:17:49.479Z,12.00
2022-07-27T13:20:18.444Z,12.25
2022-07-27T13:22:46.813Z,18.77
2022-07-27T13:25:17.316Z,29.83
2022-07-27T13:27:47.614Z,25.75
2022-07-27T13:30:16.878Z,28.95
2022-07-27T13:32:46.537Z,14.68
2022-07-27T13:35:14.714Z,28.52
2022-07-27T13:37:42.226Z,33.05
2022-07-27T13:40:10.750Z,15.63
2022-07-27T13:42:38.806Z,15.52
2022-07-27T13:45:10.975Z,29.77
2022-07-27T13:47:39.733Z,26.20
2022-07-27T13:50:16.716Z,37.08
2022-07-27T13:52:46.085Z,50.25
2022-07-27T13:55:14.043Z,41.53
2022-07-27T13:57:41.539Z,51.05
2022-07-27T14:00:11.969Z,53.00
2022-07-27T14:02:39.867Z,51.65
2022-07-27T14:05:10.002Z,36.80
2022-07-27T14:07:41.383Z,24.20
2022-07-27T14:10:29.446Z,32.00
2022-07-27T14:12:59.229Z,41.78
2022-07-27T14:15:28.395Z,23.05
2022-07-27T14:17:55.905Z,28.90
2022-07-27T14:20:23.888Z,27.75
2022-07-27T14:22:51.646Z,17.23
2022-07-27T14:25:19.254Z,12.18
2022-07-27T14:27:46.989Z,27.02
2022-07-27T14:30:20.310Z,20.92
2022-07-27T14:32:50.159Z,21.08
2022-07-27T14:35:18.231Z,15.07
2022-07-27T14:37:45.713Z,12.73
2022-07-27T14:40:14.369Z,20.85
2022-07-27T14:42:42.037Z,17.80
2022-07-27T14:45:10.224Z,32.58
2022-07-27T14:47:37.697Z,26.35
2022-07-27T14:50:09.570Z,25.20
2022-07-27T14:52:37.174Z,45.72
2022-07-27T14:55:05.138Z,36.05
2022-07-27T14:57:32.963Z,21.90
2022-07-27T15:00:00.488Z,26.35
2022-07-27T15:02:28.220Z,26.25
2022-07-27T15:04:55.716Z,20.17
2022-07-27T15:07:24.519Z,40.90
2022-07-27T15:09:52.002Z,52.63
2022-07-27T15:12:19.540Z,44.80
2022-07-27T15:14:47.064Z,48.28
2022-07-27T15:17:14.768Z,41.28
2022-07-27T15:19:42.232Z,40.72
2022-07-27T15:22:10.085Z,42.53
2022-07-27T15:24:39.002Z,54.45
2022-07-27T15:27:06.459Z,42.45
2022-07-27T15:29:33.978Z,52.95
2022-07-27T15:32:01.541Z,31.20
2022-07-27T15:34:29.312Z,11.10
2022-07-27T15:36:56.886Z,18.15
2022-07-27T15:39:24.924Z,24.85
2022-07-27T15:41:53.757Z,41.15
2022-07-27T15:44:22.461Z,30.35
2022-07-27T15:46:49.986Z,41.08
2022-07-27T15:49:18.284Z,40.65
2022-07-27T15:51:47.979Z,24.88
2022-07-27T15:54:15.527Z,33.42
2022-07-27T15:56:43.024Z,36.22
2022-07-27T15:59:12.631Z,21.85
2022-07-27T16:01:40.509Z,25.77
2022-07-27T16:04:08.753Z,28.20
2022-07-27T16:06:39.321Z,43.72
2022-07-27T16:09:09.110Z,37.63
2022-07-27T16:11:37.455Z,52.17
2022-07-27T16:14:04.981Z,48.10
2022-07-27T16:16:33.875Z,38.63
2022-07-27T16:19:12.688Z,53.60
2022-07-27T16:21:55.337Z,46.78
2022-07-27T16:24:23.637Z,49.55
2022-07-27T16:26:51.160Z,60.38
2022-07-27T16:29:18.736Z,52.42
2022-07-27T16:31:47.600Z,39.97
2022-07-27T16:34:15.184Z,34.88
2022-07-27T16:36:42.699Z,36.67
2022-07-27T16:39:10.404Z,12.60
2022-07-27T16:41:38.384Z,23.58
2022-07-27T16:44:06.360Z,39.33
2022-07-27T16:46:33.913Z,52.42
2022-07-27T16:49:02.862Z,38.63
2022-07-27T16:51:30.837Z,60.45
2022-07-27T16:53:58.318Z,39.33
2022-07-27T16:56:26.039Z,26.70
2022-07-27T16:58:53.497Z,50.28
2022-07-27T17:01:26.128Z,51.13
2022-07-27T17:03:54.699Z,40.70
2022-07-27T17:06:24.302Z,57.67
2022-07-27T17:08:51.834Z,48.67
2022-07-27T17:11:21.530Z,44.80
2022-07-27T17:13:49.792Z,57.40
2022-07-27T17:16:18.378Z,54.72
2022-07-27T17:18:46.109Z,59.08
2022-07-27T17:21:13.809Z,52.35
2022-07-27T17:23:43.968Z,54.35
2022-07-27T17:26:12.358Z,46.47
2022-07-27T17:28:40.748Z,61.95
2022-07-27T17:31:10.191Z,60.70
2022-07-27T17:33:38.548Z,64.22
2022-07-27T17:36:12.216Z,61.40
2022-07-27T17:38:43.588Z,55.55
2022-07-27T17:41:11.149Z,62.22
2022-07-27T17:43:39.385Z,60.88
2022-07-27T17:46:07.502Z,59.40
2022-07-27T17:48:35.381Z,56.15
2022-07-27T17:51:03.542Z,56.47
2022-07-27T17:53:31.200Z,61.10
2022-07-27T17:56:00.657Z,59.05
2022-07-27T17:58:30.446Z,50.53
2022-07-27T18:00:58.150Z,47.67
2022-07-27T18:03:25.750Z,61.58
2022-07-27T18:05:53.548Z,60.33
2022-07-27T18:08:21.075Z,42.10
2022-07-27T18:10:49.781Z,38.58
2022-07-27T18:13:18.764Z,37.97
2022-07-27T18:15:50.388Z,66.43
2022-07-27T18:18:20.553Z,73.88
2022-07-27T18:20:51.911Z,76.13
2022-07-27T18:23:20.450Z,66.72
2022-07-27T18:25:48.415Z,64.30
2022-07-27T18:28:16.962Z,72.25
2022-07-27T18:30:46.343Z,68.18
2022-07-27T18:33:14.450Z,52.47
2022-07-27T18:35:43.038Z,29.15
2022-07-27T18:38:10.824Z,26.58
2022-07-27T18:40:41.124Z,19.50
2022-07-27T18:43:10.582Z,40.00
2022-07-27T18:45:38.269Z,14.80
2022-07-27T18:48:08.791Z,27.50
2022-07-27T18:50:39.333Z,36.53
2022-07-27T18:53:07.396Z,37.08
2022-07-27T18:55:34.951Z,20.58
2022-07-27T18:58:02.479Z,21.92
2022-07-27T19:00:30.083Z,41.13
2022-07-27T19:02:58.523Z,44.65
2022-07-27T19:05:32.784Z,32.75
2022-07-27T19:08:11.357Z,14.63
2022-07-27T19:10:42.112Z,27.75
2022-07-27T19:13:10.324Z,35.80
2022-07-27T19:15:38.138Z,15.82
2022-07-27T19:18:06.245Z,21.77
2022-07-27T19:20:37.495Z,18.67
2022-07-27T19:23:05.154Z,66.10
2022-07-27T19:25:33.676Z,67.97
2022-07-27T19:28:01.847Z,44.25
2022-07-27T19:30:29.425Z,36.35
2022-07-27T19:32:57.340Z,35.63
2022-07-27T19:35:24.887Z,81.03
2022-07-27T19:37:53.738Z,67.50
2022-07-27T19:43:09.085Z,73.18
2022-07-27T19:45:37.313Z,96.07
2022-07-27T19:48:05.609Z,111.18
2022-07-27T19:50:33.570Z,108.20
2022-07-27T19:53:03.067Z,107.03
2022-07-27T19:55:30.605Z,106.78
2022-07-27T19:57:58.136Z,96.70
2022-07-27T20:00:25.965Z,115.80
2022-07-27T20:02:53.828Z,102.72
2022-07-27T20:05:22.563Z,117.38
2022-07-27T20:07:50.162Z,67.20
2022-07-27T20:10:19.106Z,53.10
2022-07-27T20:12:46.627Z,68.78
2022-07-27T20:15:14.295Z,69.15
2022-07-27T20:17:41.819Z,81.22
2022-07-27T20:20:11.547Z,68.63
2022-07-27T20:22:40.903Z,100.60
2022-07-27T20:25:10.460Z,82.35
2022-07-27T20:27:39.735Z,139.38
2022-07-27T20:30:08.945Z,137.75
2022-07-27T20:32:36.812Z,154.77
2022-07-27T20:35:05.362Z,120.15
2022-07-27T20:37:33.256Z,101.30
2022-07-27T20:40:00.980Z,60.85
2022-07-27T20:42:28.961Z,151.95
2022-07-27T20:44:57.827Z,136.80
2022-07-27T20:47:27.077Z,89.47
2022-07-27T20:49:56.251Z,143.85
2022-07-27T20:52:23.842Z,142.48
2022-07-27T20:54:51.448Z,120.50
2022-07-27T20:57:18.946Z,121.30
2022-07-27T20:59:46.449Z,84.30
2022-07-27T21:02:15.359Z,70.97
2022-07-27T21:04:42.941Z,83.95
2022-07-27T21:07:10.521Z,76.40
2022-07-27T21:09:38.116Z,58.10
2022-07-27T21:12:08.321Z,96.88
2022-07-27T21:14:35.827Z,66.43
2022-07-27T21:17:03.431Z,81.97
2022-07-27T21:19:33.011Z,55.40
2022-07-27T21:22:00.584Z,55.67
2022-07-27T21:24:28.863Z,69.90
2022-07-27T21:27:00.915Z,50.40
2022-07-27T21:29:32.257Z,74.57
2022-07-27T21:31:59.819Z,62.95
2022-07-27T21:34:27.678Z,58.95
2022-07-27T21:36:56.522Z,124.05
2022-07-27T21:39:24.897Z,82.95
2022-07-27T21:41:52.492Z,147.43
2022-07-27T21:44:19.952Z,103.88
2022-07-27T21:46:48.359Z,180.43
2022-07-27T21:49:15.986Z,182.15
2022-07-27T21:51:43.518Z,141.73
2022-07-27T21:54:12.535Z,170.18
2022-07-27T21:56:41.717Z,134.68
2022-07-27T21:59:10.002Z,161.40
2022-07-27T22:01:37.575Z,140.30
2022-07-27T22:04:05.549Z,171.18
2022-07-27T22:06:33.064Z,207.52
2022-07-27T22:09:01.020Z,201.05
2022-07-27T22:11:29.864Z,160.27
2022-07-27T22:13:57.463Z,152.60
2022-07-27T22:16:25.050Z,172.88
2022-07-27T22:18:52.662Z,138.30
2022-07-27T22:21:21.602Z,109.60
2022-07-27T22:23:49.301Z,108.50
2022-07-27T22:26:17.379Z,145.80
2022-07-27T22:28:46.243Z,142.85
2022-07-27T22:31:22.777Z,137.90
2022-07-27T22:33:51.222Z,156.88
2022-07-27T22:36:18.750Z,90.38
2022-07-27T22:38:46.313Z,144.68
2022-07-27T22:41:13.861Z,138.95
2022-07-27T22:43:41.829Z,122.47
2022-07-27T22:46:10.875Z,129.27
2022-07-27T22:48:38.908Z,106.68
2022-07-27T22:51:07.652Z,145.43
2022-07-27T22:53:35.404Z,141.65
2022-07-27T22:56:02.885Z,150.13
2022-07-27T22:58:30.374Z,140.15
2022-07-27T23:00:59.877Z,142.02
2022-07-27T23:03:28.946Z,133.80
2022-07-27T23:05:56.428Z,131.10
2022-07-27T23:08:24.036Z,144.35
2022-07-27T23:10:51.523Z,145.55
2022-07-27T23:13:20.419Z,161.50
2022-07-27T23:15:48.475Z,146.48
2022-07-27T23:18:17.154Z,157.77
2022-07-27T23:20:46.398Z,140.40
2022-07-27T23:23:16.448Z,157.45
2022-07-27T23:25:44.462Z,114.85
2022-07-27T23:28:12.258Z,95.00
2022-07-27T23:30:39.925Z,113.85
2022-07-27T23:33:07.476Z,114.80
2022-07-27T23:35:35.114Z,112.38
2022-07-27T23:38:04.024Z,144.95
2022-07-27T23:40:31.720Z,116.22
2022-07-27T23:42:59.213Z,141.70
2022-07-27T23:45:27.362Z,141.32
2022-07-27T23:47:55.196Z,70.13
2022-07-27T23:50:23.063Z,58.70
2022-07-27T23:52:50.627Z,73.43
2022-07-27T23:55:19.544Z,48.58
2022-07-27T23:57:47.297Z,42.72
